Time;durP1;ratioP1;P1;durP2;ratioP2;P2;SDS_P1;SDS_P2;PMS_P1;PMS_P2;Temp;Humidity;BMP_temperature;BMP_pressure;BME280_temperature;BME280_humidity;BME280_pressure;Samples;Min_cycle;Max_cycle;Signal;HPM_P1;HPM_P2
2021/12/23 00:00:11;;;;;;;6.93;3.67;;;;;;;;;;5009415;28;20444;-73
2021/12/23 00:02:38;;;;;;;4.90;3.25;;;;;;;;;;5025749;28;20480;-73
2021/12/23 00:05:05;;;;;;;4.75;3.15;;;;;;;;;;5015252;28;20022;-72
2021/12/23 00:07:31;;;;;;;7.70;3.47;;;;;;;;;;5005671;28;20393;-73
2021/12/23 00:10:08;;;;;;;11.57;3.60;;;;;;;;;;5021226;28;20137;-75
2021/12/23 00:12:35;;;;;;;6.72;3.30;;;;;;;;;;5010555;28;20485;-73
2021/12/23 00:15:03;;;;;;;6.55;3.47;;;;;;;;;;5025001;28;20022;-73
2021/12/23 00:25:25;;;;;;;5.38;3.72;;;;;;;;;;5006599;28;20053;-73
2021/12/23 00:27:51;;;;;;;10.68;4.25;;;;;;;;;;5006173;28;20078;-72
2021/12/23 00:30:17;;;;;;;9.63;4.25;;;;;;;;;;5006150;28;20027;-75
2021/12/23 00:32:43;;;;;;;6.50;3.22;;;;;;;;;;5013617;28;20026;-72
2021/12/23 00:35:10;;;;;;;6.30;3.30;;;;;;;;;;5024982;28;20031;-72
2021/12/23 00:37:40;;;;;;;7.10;3.30;;;;;;;;;;5025779;28;20026;-72
2021/12/23 00:40:09;;;;;;;5.75;3.60;;;;;;;;;;5025185;28;20048;-76
2021/12/23 00:42:35;;;;;;;5.32;3.67;;;;;;;;;;5019344;28;20032;-74
2021/12/23 00:45:03;;;;;;;5.55;3.35;;;;;;;;;;5015955;28;20069;-73
2021/12/23 00:47:29;;;;;;;9.50;3.67;;;;;;;;;;5025458;28;20018;-73
2021/12/23 00:49:56;;;;;;;5.40;3.90;;;;;;;;;;5025725;28;20026;-73
2021/12/23 00:52:35;;;;;;;5.30;4.30;;;;;;;;;;5025690;28;20030;-73
2021/12/23 00:55:04;;;;;;;6.72;3.65;;;;;;;;;;5027876;28;20388;-75
2021/12/23 00:57:31;;;;;;;6.22;3.03;;;;;;;;;;5029930;28;20028;-72
2021/12/23 00:59:58;;;;;;;5.03;2.65;;;;;;;;;;5028983;28;20395;-74
2021/12/23 01:02:29;;;;;;;6.25;3.53;;;;;;;;;;5010112;28;20026;-71
2021/12/23 01:04:55;;;;;;;4.32;2.80;;;;;;;;;;5010428;28;20025;-73
2021/12/23 01:07:21;;;;;;;3.15;2.38;;;;;;;;;;5021731;28;20040;-73
2021/12/23 01:09:47;;;;;;;6.65;2.72;;;;;;;;;;5028984;28;20026;-73
2021/12/23 01:12:17;;;;;;;4.57;2.72;;;;;;;;;;5027778;28;20519;-72
2021/12/23 01:14:55;;;;;;;6.75;3.58;;;;;;;;;;5028849;28;20018;-72
2021/12/23 01:19:56;;;;;;;3.58;2.40;;;;;;;;;;5009539;28;20033;-74
2021/12/23 01:22:22;;;;;;;4.30;2.50;;;;;;;;;;5008811;28;20022;-73
2021/12/23 01:24:49;;;;;;;7.30;3.10;;;;;;;;;;5008651;28;20059;-75
2021/12/23 01:27:16;;;;;;;4.28;3.38;;;;;;;;;;5008946;28;20080;-74
2021/12/23 01:29:42;;;;;;;2.47;2.28;;;;;;;;;;5009042;28;20041;-72
2021/12/23 01:32:08;;;;;;;3.63;2.50;;;;;;;;;;5025654;28;20057;-73
2021/12/23 01:34:35;;;;;;;8.00;3.13;;;;;;;;;;5015562;28;20046;-71
2021/12/23 01:37:04;;;;;;;3.75;2.60;;;;;;;;;;5019218;28;20053;-72
2021/12/23 01:39:31;;;;;;;3.58;2.50;;;;;;;;;;5010131;28;20030;-72
2021/12/23 01:41:57;;;;;;;4.03;2.50;;;;;;;;;;5027198;28;20417;-72
2021/12/23 01:44:23;;;;;;;6.45;2.78;;;;;;;;;;5029370;28;20030;-72
2021/12/23 01:46:50;;;;;;;6.68;2.40;;;;;;;;;;5027753;28;20029;-73
2021/12/23 01:49:16;;;;;;;6.03;2.20;;;;;;;;;;5028495;28;20057;-72
2021/12/23 01:51:42;;;;;;;2.80;2.20;;;;;;;;;;5027682;28;20026;-73
2021/12/23 01:54:08;;;;;;;3.95;2.15;;;;;;;;;;5023040;28;20074;-73
2021/12/23 01:56:34;;;;;;;6.07;2.53;;;;;;;;;;5010326;28;20061;-73
2021/12/23 01:59:00;;;;;;;4.28;2.22;;;;;;;;;;5027373;28;20046;-72
2021/12/23 02:01:26;;;;;;;4.13;2.30;;;;;;;;;;5025130;28;20030;-73
2021/12/23 02:03:52;;;;;;;2.97;2.28;;;;;;;;;;5009668;28;20037;-75
2021/12/23 02:06:18;;;;;;;2.30;2.05;;;;;;;;;;5005144;28;20035;-75
2021/12/23 02:08:45;;;;;;;2.50;2.30;;;;;;;;;;5014049;28;20030;-72
2021/12/23 02:11:11;;;;;;;2.72;2.30;;;;;;;;;;5023441;28;20041;-75
2021/12/23 02:13:38;;;;;;;6.00;2.60;;;;;;;;;;5010993;28;20057;-74
2021/12/23 02:16:05;;;;;;;4.07;2.60;;;;;;;;;;5006652;28;20018;-71
2021/12/23 02:18:31;;;;;;;3.95;2.30;;;;;;;;;;5007201;28;20061;-75
2021/12/23 02:20:58;;;;;;;4.50;2.65;;;;;;;;;;5014732;28;20116;-72
2021/12/23 02:23:25;;;;;;;4.50;2.88;;;;;;;;;;5027018;28;20025;-74
2021/12/23 02:25:51;;;;;;;3.35;2.65;;;;;;;;;;5026601;28;20037;-72
2021/12/23 02:28:18;;;;;;;5.75;2.35;;;;;;;;;;5015195;28;20500;-73
2021/12/23 02:30:44;;;;;;;3.47;2.50;;;;;;;;;;5006711;28;20040;-73
2021/12/23 02:33:10;;;;;;;5.13;2.50;;;;;;;;;;5017597;28;20384;-74
2021/12/23 02:35:37;;;;;;;4.80;2.63;;;;;;;;;;5024868;28;20036;-74
2021/12/23 02:38:04;;;;;;;3.50;2.47;;;;;;;;;;5022584;28;20038;-75
2021/12/23 02:40:32;;;;;;;4.07;2.22;;;;;;;;;;5006432;28;20026;-75
2021/12/23 02:43:08;;;;;;;5.10;2.78;;;;;;;;;;5018900;28;20033;-72
2021/12/23 02:45:34;;;;;;;2.45;2.25;;;;;;;;;;5024196;28;20037;-72
2021/12/23 02:48:00;;;;;;;3.22;2.35;;;;;;;;;;5005761;28;20085;-75
2021/12/23 02:50:26;;;;;;;5.22;2.40;;;;;;;;;;5009812;28;20032;-74
2021/12/23 02:52:53;;;;;;;5.22;2.10;;;;;;;;;;5024164;28;20034;-73
2021/12/23 02:55:20;;;;;;;3.72;2.00;;;;;;;;;;5013201;28;20076;-72
2021/12/23 02:57:46;;;;;;;3.72;2.40;;;;;;;;;;5006518;28;21367;-73
2021/12/23 03:00:12;;;;;;;4.57;1.85;;;;;;;;;;5020203;28;20045;-73
2021/12/23 03:02:39;;;;;;;4.75;2.42;;;;;;;;;;5018795;28;20023;-72
2021/12/23 03:05:06;;;;;;;2.80;2.25;;;;;;;;;;5006663;28;20037;-72
2021/12/23 03:07:32;;;;;;;3.45;2.58;;;;;;;;;;5007403;28;20031;-77
2021/12/23 03:09:58;;;;;;;4.03;2.20;;;;;;;;;;5023023;28;20026;-72
2021/12/23 03:12:24;;;;;;;7.30;2.25;;;;;;;;;;5011376;28;20033;-73
2021/12/23 03:14:50;;;;;;;5.18;2.08;;;;;;;;;;5023660;28;20025;-77
2021/12/23 03:17:17;;;;;;;4.40;2.35;;;;;;;;;;5026124;28;20465;-77
2021/12/23 03:19:43;;;;;;;3.60;2.30;;;;;;;;;;5026196;28;20073;-72
2021/12/23 03:22:09;;;;;;;5.78;2.13;;;;;;;;;;5025296;28;20271;-72
2021/12/23 03:24:38;;;;;;;5.43;2.58;;;;;;;;;;5018889;28;20037;-72
2021/12/23 03:27:04;;;;;;;6.35;2.45;;;;;;;;;;5016234;28;20386;-72
2021/12/23 03:29:30;;;;;;;8.20;2.70;;;;;;;;;;5021381;28;20481;-73
2021/12/23 03:31:56;;;;;;;6.80;3.53;;;;;;;;;;5022209;28;20086;-74
2021/12/23 03:34:23;;;;;;;8.77;3.00;;;;;;;;;;5020692;28;20030;-76
2021/12/23 03:36:52;;;;;;;9.65;3.60;;;;;;;;;;5006500;28;20026;-72
2021/12/23 03:39:19;;;;;;;8.80;3.25;;;;;;;;;;5017813;28;20026;-73
2021/12/23 03:41:46;;;;;;;7.35;3.13;;;;;;;;;;5010084;28;20028;-72
2021/12/23 03:44:12;;;;;;;7.25;2.67;;;;;;;;;;5006347;28;20081;-72
2021/12/23 03:46:38;;;;;;;5.47;3.35;;;;;;;;;;5013888;28;20026;-75
2021/12/23 03:49:05;;;;;;;5.13;2.47;;;;;;;;;;5015926;28;20022;-74
2021/12/23 03:51:32;;;;;;;6.65;2.75;;;;;;;;;;5021940;28;20034;-74
2021/12/23 03:54:01;;;;;;;8.98;3.10;;;;;;;;;;5015318;28;20022;-71
2021/12/23 03:56:27;;;;;;;5.68;2.88;;;;;;;;;;5006100;28;20023;-72
2021/12/23 03:58:54;;;;;;;6.82;2.92;;;;;;;;;;5005708;28;20034;-73
2021/12/23 04:01:27;;;;;;;6.03;3.08;;;;;;;;;;5018182;28;20141;-74
2021/12/23 04:03:53;;;;;;;7.10;3.13;;;;;;;;;;5008733;28;20085;-74
2021/12/23 04:06:20;;;;;;;10.38;3.05;;;;;;;;;;5025360;28;20036;-72
2021/12/23 04:08:46;;;;;;;8.45;3.30;;;;;;;;;;5021263;28;20033;-75
2021/12/23 04:11:13;;;;;;;7.85;3.50;;;;;;;;;;5014595;28;20031;-72
2021/12/23 04:13:39;;;;;;;10.60;3.72;;;;;;;;;;5008336;28;20054;-72
2021/12/23 04:16:05;;;;;;;8.38;3.17;;;;;;;;;;5023308;28;20026;-74
2021/12/23 04:18:31;;;;;;;6.45;3.13;;;;;;;;;;5025638;28;20022;-73
2021/12/23 04:20:57;;;;;;;8.35;3.58;;;;;;;;;;5016125;28;20027;-72
2021/12/23 04:23:24;;;;;;;11.98;4.60;;;;;;;;;;5022566;28;20515;-72
2021/12/23 04:25:51;;;;;;;11.50;3.92;;;;;;;;;;5023828;28;20058;-72
2021/12/23 04:28:17;;;;;;;12.57;4.05;;;;;;;;;;5024878;28;20026;-72
2021/12/23 04:30:43;;;;;;;12.20;3.75;;;;;;;;;;5024066;28;20029;-71
2021/12/23 04:33:10;;;;;;;9.52;4.15;;;;;;;;;;5014943;28;20600;-71
2021/12/23 04:35:37;;;;;;;10.38;5.00;;;;;;;;;;5019303;28;20034;-73
2021/12/23 04:38:03;;;;;;;10.10;4.75;;;;;;;;;;5009172;28;20030;-71
2021/12/23 04:40:34;;;;;;;12.52;3.88;;;;;;;;;;5011470;28;20029;-72
2021/12/23 04:43:01;;;;;;;15.63;3.75;;;;;;;;;;5025676;28;20052;-71
2021/12/23 04:45:27;;;;;;;10.43;3.70;;;;;;;;;;5026061;28;20030;-71
2021/12/23 04:47:54;;;;;;;8.48;3.60;;;;;;;;;;5009774;28;20034;-71
2021/12/23 04:50:20;;;;;;;10.52;4.20;;;;;;;;;;5009999;28;20026;-73
2021/12/23 04:52:46;;;;;;;8.48;3.13;;;;;;;;;;5024890;28;20022;-73
2021/12/23 04:55:13;;;;;;;15.73;3.95;;;;;;;;;;5025614;28;20029;-71
2021/12/23 04:57:39;;;;;;;7.63;3.35;;;;;;;;;;5007651;28;20041;-71
2021/12/23 05:00:11;;;;;;;11.88;3.75;;;;;;;;;;5021450;28;20040;-72
2021/12/23 05:02:37;;;;;;;4.50;2.95;;;;;;;;;;5024000;28;20025;-74
2021/12/23 05:05:04;;;;;;;8.48;2.85;;;;;;;;;;5025623;28;20026;-74
2021/12/23 05:07:30;;;;;;;7.30;3.50;;;;;;;;;;5025424;28;20033;-71
2021/12/23 05:09:56;;;;;;;6.85;2.85;;;;;;;;;;5025394;28;20018;-72
2021/12/23 05:12:22;;;;;;;11.63;4.18;;;;;;;;;;5025741;28;20041;-73
2021/12/23 05:14:48;;;;;;;6.20;2.42;;;;;;;;;;5025948;28;20017;-72
2021/12/23 05:17:14;;;;;;;4.60;2.70;;;;;;;;;;5024643;28;20026;-73
2021/12/23 05:19:41;;;;;;;6.88;2.85;;;;;;;;;;5025803;28;20053;-72
2021/12/23 05:22:07;;;;;;;4.53;3.33;;;;;;;;;;5025777;28;20022;-72
2021/12/23 05:24:33;;;;;;;5.68;2.67;;;;;;;;;;5019862;28;20052;-73
2021/12/23 05:26:59;;;;;;;7.55;2.50;;;;;;;;;;5014380;28;20044;-72
2021/12/23 05:29:25;;;;;;;5.63;2.25;;;;;;;;;;5025259;28;20034;-74
2021/12/23 05:31:52;;;;;;;3.33;2.28;;;;;;;;;;5025320;28;20022;-72
2021/12/23 05:34:18;;;;;;;3.10;2.63;;;;;;;;;;5021905;28;20045;-76
2021/12/23 05:36:44;;;;;;;5.38;2.20;;;;;;;;;;5021855;28;20033;-72
2021/12/23 05:39:10;;;;;;;4.18;1.88;;;;;;;;;;5011806;28;20022;-72
2021/12/23 05:41:37;;;;;;;2.60;1.85;;;;;;;;;;5021850;28;20030;-71
2021/12/23 05:44:03;;;;;;;2.47;1.75;;;;;;;;;;5010103;28;20034;-73
2021/12/23 05:46:40;;;;;;;2.53;1.92;;;;;;;;;;5017594;28;20038;-75
2021/12/23 05:49:06;;;;;;;2.92;1.75;;;;;;;;;;5027868;28;20018;-72
2021/12/23 05:51:33;;;;;;;5.10;1.70;;;;;;;;;;5029115;28;20131;-73
2021/12/23 05:53:59;;;;;;;1.58;1.38;;;;;;;;;;5019951;28;20028;-72
2021/12/23 05:56:25;;;;;;;1.67;1.30;;;;;;;;;;5029719;28;20079;-72
2021/12/23 05:58:51;;;;;;;1.33;1.27;;;;;;;;;;5028741;28;20049;-72
2021/12/23 06:01:17;;;;;;;1.52;1.20;;;;;;;;;;5028801;28;20108;-71
2021/12/23 06:03:46;;;;;;;1.35;1.10;;;;;;;;;;5012883;28;20109;-71
2021/12/23 06:06:13;;;;;;;1.02;1.02;;;;;;;;;;5028004;28;20464;-72
2021/12/23 06:08:39;;;;;;;0.75;0.75;;;;;;;;;;5028608;28;20022;-72
2021/12/23 06:11:05;;;;;;;0.90;0.90;;;;;;;;;;5026653;28;20026;-72
2021/12/23 06:13:32;;;;;;;1.00;1.00;;;;;;;;;;5028238;28;20026;-75
2021/12/23 06:15:58;;;;;;;0.80;0.80;;;;;;;;;;5010143;28;20029;-72
2021/12/23 06:18:24;;;;;;;1.00;1.00;;;;;;;;;;5012378;28;20082;-71
2021/12/23 06:20:50;;;;;;;1.42;0.90;;;;;;;;;;5027358;28;20030;-73
2021/12/23 06:23:16;;;;;;;0.90;0.90;;;;;;;;;;5027047;28;20018;-74
2021/12/23 06:25:43;;;;;;;0.93;0.93;;;;;;;;;;5012771;28;20482;-73
2021/12/23 06:28:09;;;;;;;0.98;0.98;;;;;;;;;;5027045;28;20050;-74
2021/12/23 06:30:35;;;;;;;1.00;1.00;;;;;;;;;;5027700;28;20029;-72
2021/12/23 06:33:01;;;;;;;0.93;0.93;;;;;;;;;;5027233;28;20056;-75
2021/12/23 06:35:28;;;;;;;1.00;1.00;;;;;;;;;;5028186;28;20105;-73
2021/12/23 06:37:55;;;;;;;0.88;0.88;;;;;;;;;;5021068;28;20045;-74
2021/12/23 06:40:21;;;;;;;1.00;1.00;;;;;;;;;;5010844;28;20025;-74
2021/12/23 06:42:47;;;;;;;0.93;0.93;;;;;;;;;;5010942;28;20031;-73
2021/12/23 06:45:16;;;;;;;0.93;0.93;;;;;;;;;;5019206;28;20030;-72
2021/12/23 06:47:43;;;;;;;1.10;1.10;;;;;;;;;;5027475;28;20112;-72
2021/12/23 06:50:10;;;;;;;0.90;0.90;;;;;;;;;;5008122;28;20072;-71
2021/12/23 06:52:36;;;;;;;0.80;0.80;;;;;;;;;;5013340;28;20038;-72
2021/12/23 06:55:04;;;;;;;0.80;0.80;;;;;;;;;;5017694;28;20030;-71
2021/12/23 07:00:26;;;;;;;1.42;1.08;;;;;;;;;;5006173;28;20038;-74
2021/12/23 07:02:53;;;;;;;1.00;1.00;;;;;;;;;;5006873;28;20042;-73
2021/12/23 07:05:19;;;;;;;0.80;0.80;;;;;;;;;;5007395;28;20022;-72
2021/12/23 07:10:17;;;;;;;1.17;1.17;;;;;;;;;;5006355;28;20026;-72
2021/12/23 07:12:43;;;;;;;1.13;1.10;;;;;;;;;;5007375;28;20082;-72
2021/12/23 07:15:09;;;;;;;0.70;0.70;;;;;;;;;;5025969;28;20030;-72
2021/12/23 07:17:37;;;;;;;0.80;0.80;;;;;;;;;;5007941;28;20026;-72
2021/12/23 07:20:04;;;;;;;0.90;0.90;;;;;;;;;;5007797;28;20023;-71
2021/12/23 07:22:30;;;;;;;1.00;1.00;;;;;;;;;;5007846;28;20033;-74
2021/12/23 07:24:56;;;;;;;0.90;0.90;;;;;;;;;;5015470;28;20018;-72
2021/12/23 07:27:22;;;;;;;1.00;1.00;;;;;;;;;;5027819;28;20041;-71
2021/12/23 07:29:49;;;;;;;1.67;1.58;;;;;;;;;;5027058;28;20022;-71
2021/12/23 07:32:15;;;;;;;0.93;0.93;;;;;;;;;;5026611;28;20049;-72
2021/12/23 07:34:42;;;;;;;1.10;1.05;;;;;;;;;;5027283;28;20032;-72
2021/12/23 07:37:09;;;;;;;2.40;1.30;;;;;;;;;;5008433;28;20485;-75
2021/12/23 07:39:36;;;;;;;1.20;1.10;;;;;;;;;;5013569;28;20022;-71
2021/12/23 07:42:03;;;;;;;1.63;1.25;;;;;;;;;;5026855;28;20480;-73
2021/12/23 07:44:29;;;;;;;1.30;1.20;;;;;;;;;;5025967;28;20030;-71
2021/12/23 07:46:55;;;;;;;2.15;1.25;;;;;;;;;;5011850;28;20080;-72
2021/12/23 07:49:21;;;;;;;1.27;1.20;;;;;;;;;;5011983;28;20045;-71
2021/12/23 07:51:47;;;;;;;1.40;1.30;;;;;;;;;;5011992;28;20033;-71
2021/12/23 07:54:13;;;;;;;1.40;1.30;;;;;;;;;;5020760;28;20022;-71
2021/12/23 07:56:40;;;;;;;2.05;1.30;;;;;;;;;;5022720;28;20030;-71
2021/12/23 07:59:06;;;;;;;1.23;1.13;;;;;;;;;;5008636;28;20517;-72
2021/12/23 08:01:32;;;;;;;2.15;1.23;;;;;;;;;;5018381;28;20054;-72
2021/12/23 08:03:58;;;;;;;1.20;1.10;;;;;;;;;;5014099;28;20034;-71
2021/12/23 08:06:24;;;;;;;1.40;1.30;;;;;;;;;;5022149;28;20026;-72
2021/12/23 08:08:50;;;;;;;1.42;1.40;;;;;;;;;;5024591;28;20030;-72
2021/12/23 08:11:16;;;;;;;3.05;1.40;;;;;;;;;;5023216;28;20038;-72
2021/12/23 08:13:42;;;;;;;1.88;1.77;;;;;;;;;;5007086;28;20072;-72
2021/12/23 08:16:08;;;;;;;1.00;1.00;;;;;;;;;;5008490;28;20022;-71
2021/12/23 08:18:34;;;;;;;2.00;1.20;;;;;;;;;;5016130;28;20050;-75
2021/12/23 08:21:01;;;;;;;1.40;1.30;;;;;;;;;;4992048;28;20027;-72
2021/12/23 08:23:27;;;;;;;1.55;1.40;;;;;;;;;;4987726;28;20033;-74
2021/12/23 08:25:54;;;;;;;1.70;1.60;;;;;;;;;;4987793;28;20019;-71
2021/12/23 08:28:20;;;;;;;1.58;1.35;;;;;;;;;;4987742;28;20034;-72
2021/12/23 08:30:53;;;;;;;4.32;1.63;;;;;;;;;;4987668;28;20109;-71
2021/12/23 08:33:19;;;;;;;3.15;1.60;;;;;;;;;;4987693;28;20031;-72
2021/12/23 08:35:45;;;;;;;3.47;1.80;;;;;;;;;;4987562;28;20458;-71
2021/12/23 08:38:11;;;;;;;5.75;1.92;;;;;;;;;;4987609;28;20031;-71
2021/12/23 08:40:37;;;;;;;4.70;2.30;;;;;;;;;;4985457;28;20062;-71
2021/12/23 08:43:04;;;;;;;3.85;2.15;;;;;;;;;;4988107;28;20038;-70
2021/12/23 08:45:31;;;;;;;4.72;2.15;;;;;;;;;;4987539;28;20026;-71
2021/12/23 08:47:57;;;;;;;4.38;2.08;;;;;;;;;;4987556;28;20086;-71
2021/12/23 08:50:24;;;;;;;4.15;2.15;;;;;;;;;;4987467;28;20027;-71
2021/12/23 08:52:50;;;;;;;2.22;1.70;;;;;;;;;;4989480;28;20027;-71
2021/12/23 08:55:17;;;;;;;3.63;1.85;;;;;;;;;;4988727;28;20050;-72
2021/12/23 08:57:43;;;;;;;3.83;1.80;;;;;;;;;;4987503;28;20030;-71
2021/12/23 09:00:30;;;;;;;6.03;1.83;;;;;;;;;;5014979;28;20030;-71
2021/12/23 09:02:56;;;;;;;5.25;2.20;;;;;;;;;;5026922;28;20025;-72
2021/12/23 09:05:23;;;;;;;9.38;2.53;;;;;;;;;;5026477;28;20408;-72
2021/12/23 09:07:50;;;;;;;9.02;2.30;;;;;;;;;;5026463;28;20018;-71
2021/12/23 09:10:16;;;;;;;5.18;2.47;;;;;;;;;;5025063;28;20050;-72
2021/12/23 09:12:43;;;;;;;4.05;2.10;;;;;;;;;;5024372;28;20030;-72
2021/12/23 09:15:10;;;;;;;6.88;2.38;;;;;;;;;;5024774;28;20096;-72
2021/12/23 09:17:36;;;;;;;8.57;2.65;;;;;;;;;;5012713;28;20045;-72
2021/12/23 09:20:03;;;;;;;4.70;2.17;;;;;;;;;;5018886;28;20029;-73
2021/12/23 09:22:29;;;;;;;4.63;2.10;;;;;;;;;;5020774;28;20559;-76
2021/12/23 09:24:58;;;;;;;6.05;2.45;;;;;;;;;;5027576;28;20097;-71
2021/12/23 09:27:37;;;;;;;12.95;3.08;;;;;;;;;;4990207;28;20050;-73
2021/12/23 09:32:52;;;;;;;8.30;2.40;;;;;;;;;;4989966;28;20057;-73
2021/12/23 09:35:19;;;;;;;7.72;2.30;;;;;;;;;;4995631;28;20026;-73
2021/12/23 09:37:46;;;;;;;8.13;3.72;;;;;;;;;;5016318;28;20025;-72
2021/12/23 09:40:12;;;;;;;6.68;2.95;;;;;;;;;;5024477;28;20037;-72
2021/12/23 09:42:39;;;;;;;9.68;3.00;;;;;;;;;;5028068;28;20025;-73
2021/12/23 09:45:10;;;;;;;6.60;2.25;;;;;;;;;;5007472;28;20060;-74
2021/12/23 09:47:36;;;;;;;9.70;2.78;;;;;;;;;;4999429;28;20042;-76
2021/12/23 09:50:05;;;;;;;6.60;1.85;;;;;;;;;;5003156;28;20477;-75
2021/12/23 09:52:33;;;;;;;6.82;2.30;;;;;;;;;;5012057;28;20492;-76
2021/12/23 09:55:05;;;;;;;8.43;3.95;;;;;;;;;;5003726;28;20109;-73
2021/12/23 09:57:31;;;;;;;7.50;2.67;;;;;;;;;;5014855;28;20514;-76
2021/12/23 09:59:58;;;;;;;7.28;2.50;;;;;;;;;;5012022;28;20429;-77
2021/12/23 10:02:24;;;;;;;7.50;2.50;;;;;;;;;;4999923;28;20056;-75
2021/12/23 10:04:50;;;;;;;5.75;2.22;;;;;;;;;;5001218;28;20053;-75
2021/12/23 10:07:17;;;;;;;5.82;2.47;;;;;;;;;;5000922;28;20069;-75
2021/12/23 10:09:58;;;;;;;7.68;2.10;;;;;;;;;;5001105;28;20548;-76
2021/12/23 10:37:16;;;;;;;6.82;2.20;;;;;;;;;;5007023;28;20030;-75
2021/12/23 10:39:44;;;;;;;5.57;2.38;;;;;;;;;;4991599;28;20523;-74
2021/12/23 10:42:11;;;;;;;5.25;2.40;;;;;;;;;;5004928;28;20026;-76
2021/12/23 10:44:38;;;;;;;4.80;2.33;;;;;;;;;;5005107;28;20030;-74
2021/12/23 10:47:06;;;;;;;3.25;2.40;;;;;;;;;;5016861;28;20026;-72
2021/12/23 10:49:49;;;;;;;9.95;2.67;;;;;;;;;;4987015;28;20111;-75
2021/12/23 10:52:24;;;;;;;4.35;2.17;;;;;;;;;;5002204;28;20034;-76
2021/12/23 11:00:22;;;;;;;8.77;2.30;;;;;;;;;;4986729;28;20053;-74
2021/12/23 11:03:02;;;;;;;3.20;2.10;;;;;;;;;;4992006;28;20117;-74
2021/12/23 11:05:34;;;;;;;3.17;2.88;;;;;;;;;;4991270;28;20050;-73
2021/12/23 11:38:48;;;;;;;4.38;2.47;;;;;;;;;;4952348;28;20041;-76
2021/12/23 11:41:31;;;;;;;3.00;2.30;;;;;;;;;;4999662;28;20548;-74
2021/12/23 11:43:58;;;;;;;2.90;2.13;;;;;;;;;;4995293;28;20057;-74
2021/12/23 11:46:29;;;;;;;4.25;2.80;;;;;;;;;;4997727;28;20064;-75
2021/12/23 11:48:57;;;;;;;5.20;2.33;;;;;;;;;;5002450;28;20026;-75
2021/12/23 11:54:24;;;;;;;4.43;2.72;;;;;;;;;;4996355;28;20041;-74
2021/12/23 11:56:52;;;;;;;5.43;2.72;;;;;;;;;;5002471;28;20074;-74
2021/12/23 11:59:19;;;;;;;4.32;2.10;;;;;;;;;;5001723;28;20046;-74
2021/12/23 12:01:46;;;;;;;3.28;2.28;;;;;;;;;;4997354;28;20037;-72
2021/12/23 12:04:23;;;;;;;4.63;2.10;;;;;;;;;;5010321;28;20057;-73
2021/12/23 12:06:50;;;;;;;3.78;2.33;;;;;;;;;;4987883;28;20037;-76
2021/12/23 12:09:17;;;;;;;3.03;2.10;;;;;;;;;;4986003;28;20027;-75
2021/12/23 12:11:49;;;;;;;2.88;2.20;;;;;;;;;;5003502;28;20034;-72
2021/12/23 12:14:34;;;;;;;3.97;2.08;;;;;;;;;;5015637;28;20484;-75
2021/12/23 12:17:19;;;;;;;5.03;2.13;;;;;;;;;;4985102;28;20115;-76
2021/12/23 12:20:00;;;;;;;2.00;1.70;;;;;;;;;;5004130;28;20048;-75
2021/12/23 12:22:45;;;;;;;2.72;2.15;;;;;;;;;;4995238;28;20512;-76
2021/12/23 12:25:23;;;;;;;3.22;1.75;;;;;;;;;;5010723;28;20042;-76
2021/12/23 12:27:55;;;;;;;3.17;2.22;;;;;;;;;;5004516;28;20026;-73
2021/12/23 12:30:40;;;;;;;2.53;1.85;;;;;;;;;;4992971;28;20034;-72
2021/12/23 12:33:25;;;;;;;4.13;2.27;;;;;;;;;;5004708;28;20038;-75
2021/12/23 12:35:51;;;;;;;4.18;1.92;;;;;;;;;;5015654;28;20261;-76
2021/12/23 12:38:22;;;;;;;3.72;3.40;;;;;;;;;;5015485;28;20483;-74
2021/12/23 12:40:54;;;;;;;2.85;2.40;;;;;;;;;;5006113;28;20839;-76
2021/12/23 12:43:35;;;;;;;3.40;2.20;;;;;;;;;;5000196;28;20104;-75
2021/12/23 12:46:02;;;;;;;4.60;1.80;;;;;;;;;;4995522;28;20465;-75
2021/12/23 12:48:47;;;;;;;2.15;1.55;;;;;;;;;;4997164;28;20073;-73
2021/12/23 12:51:20;;;;;;;3.40;2.00;;;;;;;;;;4994732;28;20030;-76
2021/12/23 12:54:03;;;;;;;2.08;1.65;;;;;;;;;;4986765;28;20049;-73
2021/12/23 12:56:29;;;;;;;2.72;1.60;;;;;;;;;;4992418;28;20049;-75
2021/12/23 12:58:56;;;;;;;1.92;1.60;;;;;;;;;;4982733;28;20047;-79
2021/12/23 13:01:43;;;;;;;1.83;1.70;;;;;;;;;;4988335;28;20026;-76
2021/12/23 13:04:23;;;;;;;3.15;2.35;;;;;;;;;;4992277;28;20034;-76
2021/12/23 13:06:49;;;;;;;1.73;1.63;;;;;;;;;;5003429;28;20030;-75
2021/12/23 13:09:18;;;;;;;2.55;2.00;;;;;;;;;;4995846;28;20473;-73
2021/12/23 13:11:45;;;;;;;2.78;1.80;;;;;;;;;;4994966;28;20109;-75
2021/12/23 13:14:14;;;;;;;6.65;2.00;;;;;;;;;;4993148;28;20393;-74
2021/12/23 13:16:57;;;;;;;3.50;2.13;;;;;;;;;;4995264;28;20568;-73
2021/12/23 13:19:29;;;;;;;2.97;1.90;;;;;;;;;;4993931;28;20031;-75
2021/12/23 13:21:57;;;;;;;3.35;1.80;;;;;;;;;;4996248;28;20493;-75
2021/12/23 13:24:24;;;;;;;3.05;2.08;;;;;;;;;;4995844;28;20027;-76
2021/12/23 13:26:51;;;;;;;3.08;2.33;;;;;;;;;;4997042;28;20030;-77
2021/12/23 13:29:17;;;;;;;4.75;1.88;;;;;;;;;;4993847;28;20034;-75
2021/12/23 13:31:45;;;;;;;3.60;3.10;;;;;;;;;;4992559;28;20749;-73
2021/12/23 13:34:12;;;;;;;7.65;1.95;;;;;;;;;;4994202;28;20502;-76
2021/12/23 13:36:40;;;;;;;3.42;1.92;;;;;;;;;;4994113;28;20105;-74
2021/12/23 13:39:08;;;;;;;4.85;2.00;;;;;;;;;;4994112;28;20030;-75
2021/12/23 13:41:36;;;;;;;2.38;1.60;;;;;;;;;;4994132;28;20034;-77
2021/12/23 13:44:22;;;;;;;4.75;1.90;;;;;;;;;;5012279;28;20033;-74
2021/12/23 13:46:56;;;;;;;3.88;1.75;;;;;;;;;;5012463;28;20176;-73
2021/12/23 13:49:31;;;;;;;5.55;2.10;;;;;;;;;;5001996;28;20034;-76
2021/12/23 13:51:57;;;;;;;3.40;1.80;;;;;;;;;;4994926;28;20027;-74
2021/12/23 13:54:23;;;;;;;6.40;2.22;;;;;;;;;;4994575;28;20102;-75
2021/12/23 13:56:51;;;;;;;5.43;1.98;;;;;;;;;;4996552;28;20025;-74
2021/12/23 13:59:22;;;;;;;5.15;2.55;;;;;;;;;;4998049;28;20050;-75
2021/12/23 14:01:56;;;;;;;6.07;1.85;;;;;;;;;;4995558;28;20161;-76
2021/12/23 14:04:29;;;;;;;4.45;2.20;;;;;;;;;;4998089;28;20455;-76
2021/12/23 14:06:58;;;;;;;5.57;1.92;;;;;;;;;;5003139;28;20029;-75
2021/12/23 14:09:38;;;;;;;8.98;3.78;;;;;;;;;;5017453;28;20415;-73
2021/12/23 14:12:05;;;;;;;5.53;2.55;;;;;;;;;;5011646;28;20386;-77
2021/12/23 14:14:31;;;;;;;3.22;2.00;;;;;;;;;;4995837;28;20034;-76
2021/12/23 14:16:57;;;;;;;6.55;2.50;;;;;;;;;;5010439;28;20026;-72
2021/12/23 14:19:40;;;;;;;5.00;2.50;;;;;;;;;;5014964;28;20578;-75
2021/12/23 14:24:53;;;;;;;7.72;2.25;;;;;;;;;;4996760;28;20080;-75
2021/12/23 14:27:22;;;;;;;7.13;2.55;;;;;;;;;;5014090;28;20034;-76
2021/12/23 14:29:59;;;;;;;7.70;2.40;;;;;;;;;;4996980;28;20477;-73
2021/12/23 14:32:25;;;;;;;7.43;2.70;;;;;;;;;;4996766;28;20026;-76
2021/12/23 14:34:51;;;;;;;6.55;2.67;;;;;;;;;;4996429;28;20030;-75
2021/12/23 14:37:17;;;;;;;9.15;2.53;;;;;;;;;;5002833;28;20049;-76
2021/12/23 14:39:44;;;;;;;5.50;2.22;;;;;;;;;;5005611;28;20026;-76
2021/12/23 14:42:15;;;;;;;5.32;2.40;;;;;;;;;;4995039;28;20137;-74
2021/12/23 14:44:42;;;;;;;2.95;2.00;;;;;;;;;;4994640;28;20022;-75
2021/12/23 14:47:30;;;;;;;7.15;2.40;;;;;;;;;;4996193;28;20041;-76
2021/12/23 14:52:36;;;;;;;9.98;2.58;;;;;;;;;;4996457;28;20049;-75
2021/12/23 14:55:05;;;;;;;8.63;2.72;;;;;;;;;;5005784;28;20046;-74
2021/12/23 14:57:32;;;;;;;10.82;2.55;;;;;;;;;;4998118;28;20029;-76
2021/12/23 15:00:06;;;;;;;4.50;2.45;;;;;;;;;;4997645;28;20039;-75
2021/12/23 15:02:32;;;;;;;6.43;2.47;;;;;;;;;;4998001;28;20082;-74
2021/12/23 15:05:18;;;;;;;14.80;3.17;;;;;;;;;;5008371;28;20512;-75
2021/12/23 15:07:50;;;;;;;9.55;3.17;;;;;;;;;;5000952;28;20045;-74
2021/12/23 15:10:45;;;;;;;7.90;2.55;;;;;;;;;;5009837;28;20029;-74
2021/12/23 15:13:17;;;;;;;4.57;2.55;;;;;;;;;;4991119;28;20073;-73
2021/12/23 15:15:44;;;;;;;8.30;2.45;;;;;;;;;;4998979;28;20034;-74
2021/12/23 15:18:31;;;;;;;7.82;3.13;;;;;;;;;;4999385;28;20042;-75
2021/12/23 15:20:58;;;;;;;7.90;2.60;;;;;;;;;;5002341;28;20432;-76
2021/12/23 15:23:44;;;;;;;9.98;2.80;;;;;;;;;;5015322;28;20053;-73
2021/12/23 15:26:24;;;;;;;11.63;3.30;;;;;;;;;;4996685;28;20435;-75
2021/12/23 15:29:04;;;;;;;7.07;2.75;;;;;;;;;;4999259;28;20038;-74
2021/12/23 15:31:30;;;;;;;6.78;2.55;;;;;;;;;;5012986;28;20555;-75
2021/12/23 15:33:56;;;;;;;9.73;2.58;;;;;;;;;;4996195;28;20038;-76
2021/12/23 15:36:22;;;;;;;7.93;2.63;;;;;;;;;;4995501;28;20084;-75
2021/12/23 15:38:48;;;;;;;9.80;3.00;;;;;;;;;;5000942;28;20029;-75
2021/12/23 15:41:14;;;;;;;10.70;2.65;;;;;;;;;;5004570;28;20481;-73
2021/12/23 15:43:40;;;;;;;7.72;3.10;;;;;;;;;;4995376;28;20113;-76
2021/12/23 15:46:06;;;;;;;6.65;2.50;;;;;;;;;;5009602;28;20030;-75
2021/12/23 15:48:34;;;;;;;6.95;2.88;;;;;;;;;;5012497;28;20066;-74
2021/12/23 15:51:01;;;;;;;9.43;3.55;;;;;;;;;;5008276;28;20051;-74
2021/12/23 15:53:27;;;;;;;9.70;3.33;;;;;;;;;;4997398;28;20097;-76
2021/12/23 15:56:00;;;;;;;8.25;2.90;;;;;;;;;;4995126;28;20362;-75
2021/12/23 15:58:29;;;;;;;9.23;2.90;;;;;;;;;;4994929;28;20038;-74
2021/12/23 16:00:55;;;;;;;8.88;2.85;;;;;;;;;;5001291;28;20041;-75
2021/12/23 16:03:24;;;;;;;9.30;3.97;;;;;;;;;;5001471;28;20441;-75
2021/12/23 16:08:34;;;;;;;13.63;4.70;;;;;;;;;;5006742;28;20040;-75
2021/12/23 16:11:00;;;;;;;11.05;5.70;;;;;;;;;;5014306;28;20050;-75
2021/12/23 16:13:27;;;;;;;11.85;4.95;;;;;;;;;;5014349;28;20025;-74
2021/12/23 16:15:53;;;;;;;18.05;5.95;;;;;;;;;;5000136;28;20052;-75
2021/12/23 16:18:19;;;;;;;7.60;4.60;;;;;;;;;;4994787;28;20123;-75
2021/12/23 16:20:45;;;;;;;12.85;5.25;;;;;;;;;;4994477;28;20022;-74